createdAt,value
2019-03-24T00:00:35.976Z,99.90
2019-03-24T00:03:05.433Z,99.90
2019-03-24T00:05:34.931Z,99.90
2019-03-24T00:08:04.518Z,99.90
2019-03-24T00:10:33.947Z,99.90
2019-03-24T00:13:03.389Z,99.90
2019-03-24T00:15:32.895Z,99.90
2019-03-24T00:18:02.359Z,99.90
2019-03-24T00:20:31.834Z,99.90
2019-03-24T00:23:01.293Z,99.90
2019-03-24T00:25:31.730Z,99.90
2019-03-24T00:28:01.174Z,99.90
2019-03-24T00:30:30.659Z,99.90
2019-03-24T00:33:00.106Z,99.90
2019-03-24T00:35:29.582Z,99.90
2019-03-24T00:37:59.087Z,99.90
2019-03-24T00:40:28.515Z,99.90
2019-03-24T00:42:57.963Z,99.90
2019-03-24T00:45:36.456Z,99.90
2019-03-24T00:47:58.589Z,99.90
2019-03-24T00:50:28.087Z,99.90
2019-03-24T00:52:57.527Z,99.90
2019-03-24T00:55:27.043Z,99.90
2019-03-24T00:57:56.499Z,99.90
2019-03-24T01:00:38.139Z,99.90
2019-03-24T01:03:07.583Z,99.90
2019-03-24T01:05:37.054Z,99.90
2019-03-24T01:08:06.666Z,99.90
2019-03-24T01:10:36.134Z,99.90
2019-03-24T01:13:06.622Z,99.90
2019-03-24T01:15:47.128Z,99.90
2019-03-24T01:18:07.935Z,99.90
2019-03-24T01:20:37.406Z,99.90
2019-03-24T01:23:06.943Z,99.90
2019-03-24T01:25:36.418Z,99.90
2019-03-24T01:28:05.891Z,99.90
2019-03-24T01:30:35.386Z,99.90
2019-03-24T01:33:04.980Z,99.90
2019-03-24T01:35:35.521Z,99.90
2019-03-24T01:38:05.062Z,99.90
2019-03-24T01:40:34.534Z,99.90
2019-03-24T01:43:04.147Z,99.90
2019-03-24T01:45:33.689Z,99.90
2019-03-24T01:48:04.347Z,99.90
2019-03-24T01:50:33.846Z,99.90
2019-03-24T01:53:03.316Z,99.90
2019-03-24T01:55:32.790Z,99.90
2019-03-24T01:58:02.246Z,99.90
2019-03-24T02:00:31.810Z,99.90
2019-03-24T02:03:01.292Z,99.90
2019-03-24T02:05:30.827Z,99.90
2019-03-24T02:08:00.278Z,99.90
2019-03-24T02:10:29.768Z,99.90
2019-03-24T02:12:59.282Z,99.90
2019-03-24T02:15:28.762Z,99.90
2019-03-24T02:17:58.238Z,99.90
2019-03-24T02:20:27.730Z,99.90
2019-03-24T02:22:57.183Z,99.90
2019-03-24T02:25:26.667Z,99.90
2019-03-24T02:27:56.187Z,99.90
2019-03-24T02:30:27.435Z,99.90
2019-03-24T02:32:56.895Z,99.90
2019-03-24T02:35:26.367Z,99.90
2019-03-24T02:37:55.824Z,99.90
2019-03-24T02:40:25.299Z,99.90
2019-03-24T02:42:54.784Z,99.90
2019-03-24T02:45:24.247Z,99.90
2019-03-24T02:47:53.703Z,99.90
2019-03-24T02:50:23.236Z,99.90
2019-03-24T02:52:52.631Z,99.90
2019-03-24T02:55:22.113Z,99.90
2019-03-24T02:57:51.575Z,99.90
2019-03-24T03:00:21.051Z,99.90
2019-03-24T03:02:50.591Z,99.90
2019-03-24T03:05:20.056Z,99.90
2019-03-24T03:07:49.511Z,99.90
2019-03-24T03:10:19.134Z,99.90
2019-03-24T03:12:49.672Z,99.90
2019-03-24T03:15:19.178Z,99.90
2019-03-24T03:17:48.636Z,99.90
2019-03-24T03:20:18.158Z,99.90
2019-03-24T03:22:47.602Z,99.90
2019-03-24T03:25:17.086Z,99.90
2019-03-24T03:27:46.553Z,99.90
2019-03-24T03:30:16.371Z,99.90
2019-03-24T03:32:45.808Z,99.90
2019-03-24T03:35:15.682Z,99.90
2019-03-24T03:37:45.129Z,99.90
2019-03-24T03:40:14.756Z,99.90
2019-03-24T03:42:44.604Z,99.90
2019-03-24T03:45:17.177Z,99.90
2019-03-24T03:47:46.632Z,99.90
2019-03-24T03:50:16.091Z,99.90
2019-03-24T03:52:45.570Z,99.90
2019-03-24T03:55:15.092Z,99.90
2019-03-24T03:57:44.563Z,99.90
2019-03-24T04:00:14.256Z,99.90
2019-03-24T04:02:43.753Z,99.90
2019-03-24T04:05:13.277Z,99.90
2019-03-24T04:07:42.755Z,99.90
2019-03-24T04:10:12.275Z,99.90
2019-03-24T04:12:41.753Z,99.90
2019-03-24T04:15:11.277Z,99.90
2019-03-24T04:17:40.753Z,99.90
2019-03-24T04:20:10.439Z,99.90
2019-03-24T04:22:39.911Z,99.90
2019-03-24T04:25:09.509Z,99.90
2019-03-24T04:27:38.979Z,99.90
2019-03-24T04:30:09.471Z,99.90
2019-03-24T04:32:38.948Z,99.90
2019-03-24T04:35:09.060Z,99.90
2019-03-24T04:37:38.512Z,99.90
2019-03-24T04:40:08.706Z,99.90
2019-03-24T04:42:38.181Z,99.90
2019-03-24T04:45:08.170Z,99.90
2019-03-24T04:47:37.642Z,99.90
2019-03-24T04:50:08.741Z,99.90
2019-03-24T04:52:39.184Z,99.90
2019-03-24T04:55:08.978Z,99.90
2019-03-24T04:57:38.459Z,99.90
2019-03-24T05:00:09.363Z,99.90
2019-03-24T05:02:38.843Z,99.90
2019-03-24T05:05:10.299Z,99.90
2019-03-24T05:07:40.747Z,99.90
2019-03-24T05:10:13.279Z,99.90
2019-03-24T05:12:42.759Z,99.90
2019-03-24T05:15:12.207Z,99.90
2019-03-24T05:17:41.695Z,99.90
2019-03-24T05:20:11.290Z,99.90
2019-03-24T05:22:40.765Z,99.90
2019-03-24T05:25:10.211Z,99.90
2019-03-24T05:27:40.658Z,99.90
2019-03-24T05:30:10.246Z,99.90
2019-03-24T05:32:39.727Z,99.90
2019-03-24T05:35:09.257Z,99.90
2019-03-24T05:37:38.728Z,99.90
2019-03-24T05:40:08.320Z,99.90
2019-03-24T05:42:37.867Z,99.90
2019-03-24T05:45:07.860Z,99.90
2019-03-24T05:47:37.673Z,99.90
2019-03-24T05:50:10.097Z,99.90
2019-03-24T05:52:39.580Z,99.90
2019-03-24T05:55:09.173Z,99.90
2019-03-24T05:57:38.652Z,99.90
2019-03-24T06:00:08.441Z,99.90
2019-03-24T06:02:37.987Z,99.90
2019-03-24T06:05:07.586Z,99.90
2019-03-24T06:07:37.103Z,99.90
2019-03-24T06:10:07.467Z,99.90
2019-03-24T06:12:36.947Z,99.90
2019-03-24T06:15:08.663Z,99.90
2019-03-24T06:17:47.409Z,99.90
2019-03-24T06:20:09.647Z,99.90
2019-03-24T06:22:39.127Z,99.90
2019-03-24T06:25:08.924Z,99.90
2019-03-24T06:27:38.399Z,99.90
2019-03-24T06:30:08.598Z,99.90
2019-03-24T06:32:38.122Z,99.90
2019-03-24T06:35:07.671Z,99.90
2019-03-24T06:37:37.153Z,99.90
2019-03-24T06:40:07.750Z,99.90
2019-03-24T06:42:37.224Z,99.90
2019-03-24T06:45:07.920Z,99.90
2019-03-24T06:47:37.404Z,99.90
2019-03-24T06:50:08.661Z,99.90
2019-03-24T06:52:38.139Z,99.90
2019-03-24T06:55:07.874Z,99.90
2019-03-24T06:57:37.334Z,99.90
2019-03-24T07:00:08.526Z,99.90
2019-03-24T07:02:38.009Z,99.90
2019-03-24T07:05:07.707Z,99.90
2019-03-24T07:07:37.187Z,99.90
2019-03-24T07:10:08.783Z,99.90
2019-03-24T07:12:39.244Z,99.90
2019-03-24T07:15:08.824Z,99.90
2019-03-24T07:17:38.303Z,99.90
2019-03-24T07:20:08.404Z,99.90
2019-03-24T07:22:39.018Z,99.90
2019-03-24T07:25:08.714Z,99.90
2019-03-24T07:27:38.190Z,99.90
2019-03-24T07:30:09.987Z,99.90
2019-03-24T07:32:39.488Z,99.90
2019-03-24T07:35:09.393Z,99.90
2019-03-24T07:37:38.875Z,99.90
2019-03-24T07:40:08.468Z,99.90
2019-03-24T07:42:38.061Z,99.90
2019-03-24T07:45:08.320Z,99.90
2019-03-24T07:47:37.798Z,99.90
2019-03-24T07:50:09.199Z,99.90
2019-03-24T07:52:38.675Z,99.90
2019-03-24T07:55:08.204Z,99.90
2019-03-24T07:57:37.684Z,99.90
2019-03-24T08:00:09.184Z,99.90
2019-03-24T08:02:39.929Z,99.90
2019-03-24T08:05:09.452Z,99.90
2019-03-24T08:07:38.927Z,99.90
2019-03-24T08:10:09.991Z,99.90
2019-03-24T08:12:39.514Z,99.90
2019-03-24T08:15:08.991Z,99.90
2019-03-24T08:17:38.537Z,99.90
2019-03-24T08:20:08.132Z,99.90
2019-03-24T08:22:37.614Z,99.90
2019-03-24T08:25:07.331Z,99.90
2019-03-24T08:27:36.812Z,99.90
2019-03-24T08:30:09.011Z,99.90
2019-03-24T08:32:38.495Z,99.90
2019-03-24T08:35:08.021Z,99.90
2019-03-24T08:37:37.563Z,99.90
2019-03-24T08:40:07.764Z,99.90
2019-03-24T08:42:37.311Z,99.90
2019-03-24T08:45:08.579Z,99.90
2019-03-24T08:47:38.058Z,99.90
2019-03-24T08:50:08.155Z,99.90
2019-03-24T08:52:37.633Z,99.90
2019-03-24T08:55:07.433Z,99.90
2019-03-24T08:57:36.911Z,99.90
2019-03-24T09:00:07.004Z,99.90
2019-03-24T09:02:36.482Z,99.90
2019-03-24T09:05:06.807Z,99.90
2019-03-24T09:07:36.289Z,99.90
2019-03-24T09:10:06.458Z,99.90
2019-03-24T09:12:35.867Z,99.90
2019-03-24T09:15:06.571Z,99.90
2019-03-24T09:17:37.051Z,99.90
2019-03-24T09:20:07.016Z,99.90
2019-03-24T09:22:36.496Z,99.90
2019-03-24T09:25:08.293Z,99.90
2019-03-24T09:27:37.798Z,99.90
2019-03-24T09:30:13.134Z,99.90
2019-03-24T09:32:42.619Z,99.90
2019-03-24T09:35:12.144Z,99.90
2019-03-24T09:37:41.631Z,99.90
2019-03-24T09:40:14.154Z,99.90
2019-03-24T09:42:43.639Z,99.90
2019-03-24T09:45:13.094Z,99.90
2019-03-24T09:47:42.575Z,99.90
2019-03-24T09:50:12.027Z,99.90
2019-03-24T09:52:41.507Z,99.90
2019-03-24T09:55:10.959Z,99.90
2019-03-24T09:57:40.435Z,99.90
2019-03-24T10:00:10.157Z,99.90
2019-03-24T10:02:39.689Z,99.90
2019-03-24T10:05:09.384Z,99.90
2019-03-24T10:07:38.854Z,99.90
2019-03-24T10:10:09.171Z,99.90
2019-03-24T10:12:38.631Z,99.90
2019-03-24T10:15:08.278Z,99.90
2019-03-24T10:17:37.736Z,99.90
2019-03-24T10:20:07.455Z,99.90
2019-03-24T10:22:36.911Z,99.90
2019-03-24T10:25:09.296Z,99.90
2019-03-24T10:27:38.760Z,99.90
2019-03-24T10:30:08.674Z,99.90
2019-03-24T10:32:38.130Z,99.90
2019-03-24T10:35:08.956Z,99.90
2019-03-24T10:37:38.419Z,99.90
2019-03-24T10:40:08.235Z,99.00
2019-03-24T10:42:37.963Z,99.90
2019-03-24T10:45:08.287Z,99.90
2019-03-24T10:47:37.809Z,97.30
2019-03-24T10:50:09.335Z,99.90
2019-03-24T10:52:39.770Z,99.10
2019-03-24T10:55:10.902Z,99.90
2019-03-24T10:57:40.432Z,99.90
2019-03-24T11:00:14.723Z,99.90
2019-03-24T11:02:44.183Z,99.90
2019-03-24T11:05:14.011Z,99.90
2019-03-24T11:07:43.474Z,99.60
2019-03-24T11:10:13.230Z,98.50
2019-03-24T11:12:42.692Z,92.70
2019-03-24T11:15:13.257Z,93.30
2019-03-24T11:17:42.712Z,94.30
2019-03-24T11:20:12.261Z,90.10
2019-03-24T11:22:41.724Z,94.20
2019-03-24T11:25:11.951Z,90.50
2019-03-24T11:27:41.418Z,95.20
2019-03-24T11:30:13.207Z,91.50
2019-03-24T11:32:42.891Z,90.70
2019-03-24T11:35:13.515Z,93.90
2019-03-24T11:37:42.979Z,90.20
2019-03-24T11:40:13.003Z,97.20
2019-03-24T11:42:42.456Z,96.90
2019-03-24T11:45:12.476Z,97.20
2019-03-24T11:47:41.943Z,95.20
2019-03-24T11:50:11.958Z,97.10
2019-03-24T11:52:41.417Z,97.60
2019-03-24T11:55:11.134Z,95.00
2019-03-24T11:57:40.659Z,93.30
2019-03-24T12:00:12.955Z,97.70
2019-03-24T12:02:42.465Z,97.70
2019-03-24T12:05:13.083Z,96.20
2019-03-24T12:07:42.564Z,99.90
2019-03-24T12:10:13.751Z,94.70
2019-03-24T12:12:43.211Z,95.30
2019-03-24T12:15:13.023Z,93.80
2019-03-24T12:17:42.485Z,95.50
2019-03-24T12:20:12.239Z,95.30
2019-03-24T12:22:41.756Z,94.60
2019-03-24T12:25:11.319Z,91.70
2019-03-24T12:27:41.056Z,91.20
2019-03-24T12:30:12.238Z,95.40
2019-03-24T12:32:43.315Z,84.30
2019-03-24T12:35:13.127Z,69.30
2019-03-24T12:37:45.723Z,88.40
2019-03-24T12:40:15.909Z,82.50
2019-03-24T12:42:45.367Z,83.90
2019-03-24T12:45:15.836Z,87.10
2019-03-24T12:47:45.343Z,80.50
2019-03-24T12:50:15.673Z,84.60
2019-03-24T12:52:45.135Z,90.30
2019-03-24T12:55:14.696Z,95.50
2019-03-24T12:57:44.301Z,90.70
2019-03-24T13:00:15.835Z,85.30
2019-03-24T13:02:45.303Z,90.70
2019-03-24T13:05:16.391Z,82.80
2019-03-24T13:07:45.847Z,90.40
2019-03-24T13:10:16.303Z,93.90
2019-03-24T13:12:45.781Z,92.20
2019-03-24T13:15:15.435Z,93.50
2019-03-24T13:17:44.978Z,92.00
2019-03-24T13:20:22.545Z,91.10
2019-03-24T13:22:45.668Z,91.90
2019-03-24T13:25:15.143Z,93.50
2019-03-24T13:27:44.601Z,94.00
2019-03-24T13:30:14.640Z,95.50
2019-03-24T13:32:44.087Z,95.50
2019-03-24T13:35:14.667Z,99.00
2019-03-24T13:37:44.064Z,95.00
2019-03-24T13:40:13.615Z,99.90
2019-03-24T13:42:43.099Z,97.10
2019-03-24T13:45:12.699Z,95.80
2019-03-24T13:47:42.187Z,93.20
2019-03-24T13:50:11.780Z,90.70
2019-03-24T13:52:41.936Z,91.80
2019-03-24T13:55:11.466Z,89.80
2019-03-24T13:57:40.949Z,91.00
2019-03-24T14:00:11.643Z,86.30
2019-03-24T14:02:41.192Z,87.00
2019-03-24T14:05:10.638Z,75.10
2019-03-24T14:07:40.124Z,76.20
2019-03-24T14:10:09.642Z,76.90
2019-03-24T14:12:39.135Z,78.30
2019-03-24T14:15:09.130Z,69.80
2019-03-24T14:17:38.611Z,66.70
2019-03-24T14:20:09.204Z,67.90
2019-03-24T14:22:38.918Z,69.80
2019-03-24T14:25:08.818Z,50.00
2019-03-24T14:27:38.307Z,54.40
2019-03-24T14:30:08.594Z,64.20
2019-03-24T14:32:38.068Z,71.80
2019-03-24T14:35:07.917Z,69.20
2019-03-24T14:37:38.561Z,79.70
2019-03-24T14:40:08.658Z,82.20
2019-03-24T14:42:38.141Z,78.30
2019-03-24T14:45:09.435Z,78.10
2019-03-24T14:47:38.938Z,73.70
2019-03-24T14:50:10.018Z,77.10
2019-03-24T14:52:40.546Z,59.30
2019-03-24T14:55:09.995Z,56.20
2019-03-24T14:57:39.477Z,56.80
2019-03-24T15:00:09.842Z,68.60
2019-03-24T15:02:40.862Z,66.70
2019-03-24T15:05:10.551Z,76.00
2019-03-24T15:07:40.030Z,80.30
2019-03-24T15:10:09.827Z,76.90
2019-03-24T15:12:40.274Z,58.70
2019-03-24T15:15:09.959Z,58.40
2019-03-24T15:17:39.439Z,53.40
2019-03-24T15:20:09.230Z,56.70
2019-03-24T15:22:38.726Z,49.30
2019-03-24T15:25:09.220Z,46.40
2019-03-24T15:27:38.698Z,46.10
2019-03-24T15:30:09.290Z,48.60
2019-03-24T15:32:38.770Z,50.80
2019-03-24T15:35:09.695Z,50.80
2019-03-24T15:37:39.183Z,51.50
2019-03-24T15:40:09.474Z,56.00
2019-03-24T15:42:38.944Z,53.60
2019-03-24T15:45:08.539Z,57.40
2019-03-24T15:47:38.018Z,59.50
2019-03-24T15:50:08.116Z,60.00
2019-03-24T15:52:37.760Z,64.00
2019-03-24T15:55:07.547Z,67.10
2019-03-24T15:57:37.026Z,76.50
2019-03-24T16:00:08.160Z,75.40
2019-03-24T16:02:37.638Z,81.50
2019-03-24T16:05:07.534Z,81.00
2019-03-24T16:07:37.182Z,83.60
2019-03-24T16:10:09.471Z,84.40
2019-03-24T16:12:38.959Z,86.70
2019-03-24T16:15:08.865Z,88.60
2019-03-24T16:17:38.335Z,90.80
2019-03-24T16:20:09.577Z,89.10
2019-03-24T16:22:39.006Z,92.50
2019-03-24T16:25:08.532Z,90.10
2019-03-24T16:27:38.035Z,76.50
2019-03-24T16:30:08.487Z,83.60
2019-03-24T16:32:37.966Z,85.10
2019-03-24T16:35:07.560Z,84.20
2019-03-24T16:37:37.109Z,83.50
2019-03-24T16:40:07.601Z,82.20
2019-03-24T16:42:37.088Z,84.60
2019-03-24T16:45:06.880Z,80.70
2019-03-24T16:47:36.350Z,82.20
2019-03-24T16:50:07.355Z,80.20
2019-03-24T16:52:36.832Z,83.40
2019-03-24T16:55:12.052Z,89.70
2019-03-24T16:57:40.642Z,90.40
2019-03-24T17:00:10.218Z,92.60
2019-03-24T17:02:39.750Z,90.80
2019-03-24T17:05:09.271Z,92.50
2019-03-24T17:07:38.858Z,91.60
2019-03-24T17:10:09.246Z,91.70
2019-03-24T17:12:38.718Z,91.40
2019-03-24T17:15:08.729Z,92.00
2019-03-24T17:17:38.241Z,91.80
2019-03-24T17:20:08.846Z,91.50
2019-03-24T17:22:38.357Z,91.90
2019-03-24T17:25:08.300Z,92.40
2019-03-24T17:27:37.812Z,93.80
2019-03-24T17:30:11.673Z,94.20
2019-03-24T17:32:41.791Z,95.10
2019-03-24T17:35:11.388Z,95.50
2019-03-24T17:37:42.006Z,96.80
2019-03-24T17:40:15.254Z,97.50
2019-03-24T17:42:44.693Z,97.60
2019-03-24T17:45:14.801Z,97.80
2019-03-24T17:47:44.319Z,97.90
2019-03-24T17:50:14.021Z,98.80
2019-03-24T17:52:44.345Z,99.30
2019-03-24T17:55:14.053Z,99.20
2019-03-24T17:57:43.637Z,99.70
2019-03-24T18:00:17.105Z,99.90
2019-03-24T18:02:46.745Z,99.90
2019-03-24T18:05:16.349Z,99.90
2019-03-24T18:07:45.789Z,99.90
2019-03-24T18:10:15.429Z,99.90
2019-03-24T18:12:44.976Z,99.90
2019-03-24T18:15:15.650Z,99.90
2019-03-24T18:17:45.107Z,99.90
2019-03-24T18:20:17.655Z,99.90
2019-03-24T18:22:47.093Z,99.90
2019-03-24T18:25:16.558Z,99.90
2019-03-24T18:27:45.996Z,99.90
2019-03-24T18:30:15.608Z,99.90
2019-03-24T18:32:45.154Z,99.90
2019-03-24T18:35:14.690Z,99.90
2019-03-24T18:37:44.134Z,99.90
2019-03-24T18:40:15.582Z,99.90
2019-03-24T18:42:45.022Z,99.90
2019-03-24T18:45:15.329Z,99.90
2019-03-24T18:47:52.239Z,99.90
2019-03-24T18:50:21.757Z,99.90
2019-03-24T18:52:51.314Z,99.90
2019-03-24T18:55:20.844Z,99.90
2019-03-24T18:57:50.324Z,99.90
2019-03-24T19:00:20.628Z,99.90
2019-03-24T19:02:50.867Z,99.90
2019-03-24T19:05:21.157Z,99.90
2019-03-24T19:07:50.681Z,99.90
2019-03-24T19:10:20.238Z,99.90
2019-03-24T19:12:49.752Z,99.90
2019-03-24T19:15:20.275Z,99.90
2019-03-24T19:17:49.707Z,99.90
2019-03-24T19:20:19.316Z,99.90
2019-03-24T19:22:48.755Z,99.90
2019-03-24T19:25:18.303Z,99.90
2019-03-24T19:27:47.749Z,99.90
2019-03-24T19:30:20.005Z,99.90
2019-03-24T19:32:49.444Z,99.90
2019-03-24T19:35:18.912Z,99.90
2019-03-24T19:37:48.930Z,99.90
2019-03-24T19:40:34.914Z,99.90
2019-03-24T19:43:04.569Z,99.90
2019-03-24T19:45:34.109Z,99.90
2019-03-24T19:48:03.561Z,99.90
2019-03-24T19:50:33.036Z,99.90
2019-03-24T19:53:02.542Z,99.90
2019-03-24T19:55:32.081Z,99.90
2019-03-24T19:58:01.517Z,99.90
2019-03-24T20:00:31.066Z,99.90
2019-03-24T20:03:00.501Z,99.90
2019-03-24T20:05:30.110Z,99.90
2019-03-24T20:07:59.621Z,99.90
2019-03-24T20:10:29.165Z,99.90
2019-03-24T20:12:58.685Z,99.90
2019-03-24T20:15:28.151Z,99.90
2019-03-24T20:17:57.593Z,99.90
2019-03-24T20:20:27.057Z,99.90
2019-03-24T20:22:57.140Z,99.90
2019-03-24T20:25:26.666Z,99.90
2019-03-24T20:27:56.226Z,99.90
2019-03-24T20:30:25.677Z,99.90
2019-03-24T20:32:55.202Z,99.90
2019-03-24T20:35:24.732Z,99.90
2019-03-24T20:37:54.241Z,99.90
2019-03-24T20:40:23.706Z,99.90
2019-03-24T20:42:58.258Z,99.90
2019-03-24T20:45:27.725Z,99.90
2019-03-24T20:47:57.165Z,99.90
2019-03-24T20:50:26.631Z,99.90
2019-03-24T20:53:04.123Z,99.90
2019-03-24T20:55:27.158Z,99.90
2019-03-24T20:57:57.777Z,99.90
2019-03-24T21:00:34.742Z,99.90
2019-03-24T21:03:06.885Z,99.90
2019-03-24T21:05:36.560Z,99.90
2019-03-24T21:08:06.168Z,99.90
2019-03-24T21:10:35.605Z,99.90
2019-03-24T21:13:05.212Z,99.90
2019-03-24T21:15:34.670Z,99.90
2019-03-24T21:18:05.267Z,99.90
2019-03-24T21:20:34.718Z,99.90
2019-03-24T21:23:04.447Z,99.90
2019-03-24T21:25:33.892Z,99.90
2019-03-24T21:28:04.390Z,99.90
2019-03-24T21:30:39.844Z,99.90
2019-03-24T21:33:09.325Z,99.90
2019-03-24T21:35:38.768Z,99.90
2019-03-24T21:38:08.308Z,99.90
2019-03-24T21:40:37.753Z,99.90
2019-03-24T21:43:07.219Z,99.90
2019-03-24T21:45:36.658Z,99.90
2019-03-24T21:48:06.157Z,99.90
2019-03-24T21:50:35.699Z,99.90
2019-03-24T21:53:05.339Z,99.90
2019-03-24T21:55:34.782Z,99.90
2019-03-24T21:58:05.443Z,99.90
2019-03-24T22:00:35.984Z,99.90
2019-03-24T22:03:05.736Z,99.90
2019-03-24T22:05:35.246Z,99.90
2019-03-24T22:08:04.854Z,99.90
2019-03-24T22:10:34.290Z,99.90
2019-03-24T22:13:03.893Z,99.90
2019-03-24T22:15:33.334Z,99.90
2019-03-24T22:18:02.793Z,99.90
2019-03-24T22:20:32.305Z,99.90
2019-03-24T22:23:01.765Z,99.90
2019-03-24T22:25:31.205Z,99.90
2019-03-24T22:28:00.675Z,99.90
2019-03-24T22:30:30.120Z,99.90
2019-03-24T22:32:59.595Z,99.90
2019-03-24T22:35:29.028Z,99.90
2019-03-24T22:37:58.503Z,99.90
2019-03-24T22:40:27.939Z,99.90
2019-03-24T22:42:57.469Z,99.90
2019-03-24T22:45:26.914Z,99.90
2019-03-24T22:47:56.387Z,99.90
2019-03-24T22:50:25.835Z,99.90
2019-03-24T22:52:55.319Z,99.90
2019-03-24T22:55:24.770Z,99.90
2019-03-24T22:57:54.254Z,99.90
2019-03-24T23:00:28.012Z,99.90
2019-03-24T23:02:59.112Z,99.90
2019-03-24T23:05:28.558Z,99.90
2019-03-24T23:07:58.043Z,99.90
2019-03-24T23:10:27.491Z,99.90
2019-03-24T23:12:56.963Z,99.90
2019-03-24T23:15:26.418Z,99.90
2019-03-24T23:17:55.894Z,99.90
2019-03-24T23:20:25.346Z,99.90
2019-03-24T23:22:54.823Z,99.90
2019-03-24T23:25:24.269Z,99.90
2019-03-24T23:27:54.817Z,99.90
2019-03-24T23:30:24.262Z,99.90
2019-03-24T23:32:53.807Z,99.90
2019-03-24T23:35:23.255Z,99.90
2019-03-24T23:37:52.732Z,99.90
2019-03-24T23:40:22.183Z,99.90
2019-03-24T23:42:51.660Z,99.90
2019-03-24T23:45:21.111Z,99.90
2019-03-24T23:47:50.591Z,99.90
2019-03-24T23:50:20.044Z,99.90
2019-03-24T23:52:49.529Z,99.90
2019-03-24T23:55:18.992Z,99.90
2019-03-24T23:57:48.455Z,99.90
